Time;durP1;ratioP1;P1;durP2;ratioP2;P2;SDS_P1;SDS_P2;PMS_P1;PMS_P2;Temp;Humidity;BMP_temperature;BMP_pressure;BME280_temperature;BME280_humidity;BME280_pressure;Samples;Min_cycle;Max_cycle;Signal;HPM_P1;HPM_P2
2021/12/05 00:17:21;;;;;;;28.20;9.60;;;;;;;1.75;70.51;98672.50;102857;1312;26945;-57
2021/12/05 00:20:21;;;;;;;27.20;9.00;;;;;;;1.72;70.45;98659.37;103037;1312;22798;-57
2021/12/05 00:22:50;;;;;;;26.00;8.80;;;;;;;1.69;70.39;98663.15;102843;1315;22705;-57
2021/12/05 00:25:27;;;;;;;27.00;8.90;;;;;;;1.66;70.32;98667.38;102823;1312;22590;-57
2021/12/05 00:28:12;;;;;;;26.90;9.60;;;;;;;1.62;70.23;98664.70;102840;1319;25483;-58
2021/12/05 00:31:05;;;;;;;29.90;8.10;;;;;;;1.61;70.36;98663.86;102745;1319;22589;-56
2021/12/05 00:33:52;;;;;;;28.50;8.80;;;;;;;1.62;70.36;98669.13;102684;1312;25452;-58
2021/12/05 00:42:31;;;;;;;29.20;8.50;;;;;;;1.62;70.37;98679.40;102732;1316;22595;-58
2021/12/05 00:47:57;;;;;;;24.30;8.10;;;;;;;1.62;70.41;98685.52;102669;1312;22644;-56
2021/12/05 00:51:07;;;;;;;27.60;8.70;;;;;;;1.65;70.39;98685.96;102658;1317;24303;-56
2021/12/05 00:56:36;;;;;;;29.60;10.10;;;;;;;1.70;70.42;98682.02;102688;1312;22569;-56
2021/12/05 00:59:30;;;;;;;25.10;8.70;;;;;;;1.70;70.45;98694.63;102783;1313;25659;-58
2021/12/05 01:02:30;;;;;;;29.90;9.50;;;;;;;1.69;70.23;98702.46;102652;1317;25050;-56
2021/12/05 01:10:56;;;;;;;30.10;10.80;;;;;;;1.66;70.35;98693.77;102337;1321;22572;-59
2021/12/05 01:13:32;;;;;;;28.20;9.60;;;;;;;1.65;70.43;98689.79;102242;1321;22647;-56
2021/12/05 01:16:05;;;;;;;31.40;11.10;;;;;;;1.64;70.56;98687.63;102899;1320;24378;-58
2021/12/05 01:18:35;;;;;;;28.20;10.40;;;;;;;1.66;70.60;98698.91;102804;1327;24998;-59
2021/12/05 01:21:09;;;;;;;30.20;10.30;;;;;;;1.67;70.57;98701.08;102729;1321;24376;-58
2021/12/05 01:23:50;;;;;;;27.30;9.30;;;;;;;1.68;70.51;98701.02;102729;1320;24483;-57
2021/12/05 01:26:21;;;;;;;30.20;10.30;;;;;;;1.71;70.62;98696.26;102691;1321;25726;-56
2021/12/05 01:31:53;;;;;;;27.80;10.30;;;;;;;1.74;70.72;98698.09;102324;1328;25958;-56
2021/12/05 01:34:37;;;;;;;28.80;10.00;;;;;;;1.75;70.69;98696.16;102353;1324;24456;-61
2021/12/05 01:37:16;;;;;;;31.40;10.80;;;;;;;1.76;70.83;98696.44;102377;1324;22608;-58
2021/12/05 01:39:59;;;;;;;32.30;11.70;;;;;;;1.76;70.89;98696.69;102358;1323;24282;-60
2021/12/05 01:45:54;;;;;;;30.90;11.90;;;;;;;1.71;71.08;98694.05;102657;1323;22607;-59
2021/12/05 02:00:17;;;;;;;33.00;11.20;;;;;;;1.65;71.90;98698.23;102843;1318;24269;-57
2021/12/05 02:34:04;;;;;;;32.40;12.50;;;;;;;1.33;74.56;98698.05;102302;1321;22650;-57
2021/12/05 02:39:35;;;;;;;36.40;12.70;;;;;;;1.28;75.04;98699.77;102334;1324;25650;-57
2021/12/05 02:42:10;;;;;;;32.40;12.80;;;;;;;1.26;75.06;98701.40;102524;1323;22594;-60
2021/12/05 02:44:40;;;;;;;34.10;13.50;;;;;;;1.24;75.17;98700.36;102478;1324;22600;-54
2021/12/05 02:47:13;;;;;;;32.40;14.50;;;;;;;1.24;75.32;98706.59;102481;1324;22603;-56
2021/12/05 02:49:45;;;;;;;34.80;15.20;;;;;;;1.22;75.44;98702.17;102357;1323;22594;-56
2021/12/05 02:52:20;;;;;;;34.40;15.30;;;;;;;1.21;75.41;98700.17;102442;1324;22678;-59
2021/12/05 02:54:52;;;;;;;34.30;14.90;;;;;;;1.19;75.72;98701.20;102614;1325;25719;-58
2021/12/05 02:57:32;;;;;;;35.10;14.60;;;;;;;1.19;75.79;98701.35;102772;1322;22592;-59
2021/12/05 03:00:08;;;;;;;35.80;15.00;;;;;;;1.18;75.82;98702.88;102706;1318;23286;-56
2021/12/05 03:02:40;;;;;;;38.80;15.10;;;;;;;1.22;76.01;98700.14;102721;1318;24244;-59
2021/12/05 03:05:13;;;;;;;35.60;14.90;;;;;;;1.24;76.08;98700.61;102747;1318;24395;-59
2021/12/05 03:07:47;;;;;;;38.70;13.30;;;;;;;1.27;76.13;98700.95;102786;1318;22603;-60
2021/12/05 03:10:20;;;;;;;33.80;15.20;;;;;;;1.29;76.11;98704.86;102747;1319;22583;-59
2021/12/05 03:12:48;;;;;;;36.60;14.80;;;;;;;1.33;76.22;98706.47;103235;1316;25638;-57
2021/12/05 03:15:18;;;;;;;31.20;13.40;;;;;;;1.34;76.23;98700.52;103140;1316;22619;-59
2021/12/05 03:17:47;;;;;;;34.90;14.00;;;;;;;1.35;76.28;98700.08;103326;1315;22624;-56
2021/12/05 03:20:17;;;;;;;33.20;13.70;;;;;;;1.34;76.41;98701.69;103214;1313;22638;-59
2021/12/05 03:22:46;;;;;;;30.10;12.00;;;;;;;1.33;76.47;98706.46;103337;1316;25564;-60
2021/12/05 03:25:15;;;;;;;31.60;13.70;;;;;;;1.34;76.59;98705.95;103167;1312;25524;-56
2021/12/05 03:27:44;;;;;;;30.80;14.30;;;;;;;1.33;76.63;98708.67;103293;1319;22533;-57
2021/12/05 03:30:17;;;;;;;30.90;14.60;;;;;;;1.30;76.63;98710.13;103137;1313;26128;-57
2021/12/05 03:32:47;;;;;;;37.80;15.70;;;;;;;1.29;76.81;98717.69;103142;1315;22577;-60
2021/12/05 03:35:16;;;;;;;31.40;12.90;;;;;;;1.32;76.87;98718.69;103272;1312;24094;-59
2021/12/05 03:37:46;;;;;;;33.60;14.20;;;;;;;1.33;76.89;98722.66;103126;1312;22580;-56
2021/12/05 03:40:15;;;;;;;34.20;14.40;;;;;;;1.33;76.99;98724.52;103258;1312;24452;-56
2021/12/05 03:42:43;;;;;;;35.70;16.20;;;;;;;1.35;77.09;98731.92;103106;1316;25506;-58
2021/12/05 03:45:19;;;;;;;37.20;17.60;;;;;;;1.35;77.10;98730.73;103501;1303;25319;-57
2021/12/05 03:47:48;;;;;;;40.40;17.40;;;;;;;1.34;77.11;98730.77;102898;1318;22581;-59
2021/12/05 03:50:18;;;;;;;40.00;19.40;;;;;;;1.33;77.18;98734.82;103032;1313;22580;-57
2021/12/05 03:52:49;;;;;;;33.90;15.80;;;;;;;1.32;77.36;98735.23;102884;1312;25432;-57
2021/12/05 03:55:22;;;;;;;40.20;17.30;;;;;;;1.30;77.32;98732.48;102932;1315;25485;-57
2021/12/05 03:57:50;;;;;;;39.30;17.00;;;;;;;1.30;77.47;98728.48;102956;1318;22977;-57
2021/12/05 04:00:21;;;;;;;39.40;16.40;;;;;;;1.28;77.51;98726.77;102890;1317;26950;-57
2021/12/05 04:02:52;;;;;;;30.50;13.60;;;;;;;1.30;77.57;98729.52;103045;1316;22700;-57
2021/12/05 04:05:22;;;;;;;34.30;13.00;;;;;;;1.32;77.64;98732.13;102969;1312;22725;-56
2021/12/05 04:07:50;;;;;;;34.20;13.50;;;;;;;1.29;77.68;98737.40;102947;1313;25650;-57
2021/12/05 04:10:20;;;;;;;42.90;20.70;;;;;;;1.29;77.68;98738.80;103066;1313;22562;-55
2021/12/05 04:12:50;;;;;;;37.50;16.50;;;;;;;1.29;77.78;98738.66;102917;1318;22577;-57
2021/12/05 04:15:18;;;;;;;37.20;18.60;;;;;;;1.29;77.88;98736.54;103005;1317;25532;-57
2021/12/05 04:17:47;;;;;;;33.50;14.80;;;;;;;1.28;77.99;98735.80;103024;1317;25429;-57
2021/12/05 04:20:18;;;;;;;30.20;14.50;;;;;;;1.27;77.96;98741.73;102831;1313;23248;-58
2021/12/05 04:22:48;;;;;;;34.10;17.60;;;;;;;1.25;78.07;98743.13;103091;1313;22662;-57
2021/12/05 04:25:18;;;;;;;38.80;20.20;;;;;;;1.23;78.13;98746.75;103080;1317;22596;-58
2021/12/05 04:27:49;;;;;;;46.30;22.10;;;;;;;1.24;78.26;98747.80;103251;1319;23167;-58
2021/12/05 04:30:21;;;;;;;38.80;17.40;;;;;;;1.26;78.25;98744.89;103011;1316;25351;-60
2021/12/05 04:32:50;;;;;;;33.80;14.40;;;;;;;1.27;78.23;98749.20;102797;1312;22658;-57
2021/12/05 04:35:19;;;;;;;35.90;16.20;;;;;;;1.27;78.34;98749.91;102987;1312;25358;-58
2021/12/05 04:37:47;;;;;;;38.10;16.30;;;;;;;1.27;78.35;98751.72;102814;1312;197144;-58
2021/12/05 04:40:16;;;;;;;30.30;14.60;;;;;;;1.30;78.45;98755.36;102813;1315;25738;-58
2021/12/05 04:42:44;;;;;;;35.10;15.00;;;;;;;1.33;78.49;98757.92;102931;1318;22589;-60
2021/12/05 04:45:15;;;;;;;33.50;14.30;;;;;;;1.34;78.44;98759.27;102785;1318;22637;-58
2021/12/05 04:47:44;;;;;;;32.60;14.50;;;;;;;1.36;78.50;98765.74;102840;1312;25355;-58
2021/12/05 04:50:15;;;;;;;34.90;14.80;;;;;;;1.38;78.61;98768.62;102867;1313;22580;-59
2021/12/05 04:52:45;;;;;;;32.20;13.90;;;;;;;1.39;78.59;98775.44;103008;1312;22650;-56
2021/12/05 04:55:14;;;;;;;34.90;15.90;;;;;;;1.41;78.68;98768.12;102802;1316;25535;-58
2021/12/05 04:57:43;;;;;;;37.00;15.60;;;;;;;1.42;78.71;98772.39;103055;1312;22660;-56
2021/12/05 05:00:17;;;;;;;46.20;20.00;;;;;;;1.42;78.73;98774.89;102738;1312;24320;-56
2021/12/05 05:02:46;;;;;;;43.30;17.80;;;;;;;1.41;78.69;98783.61;102927;1312;22791;-58
2021/12/05 05:05:16;;;;;;;40.60;18.40;;;;;;;1.40;78.80;98786.29;102954;1312;25480;-56
2021/12/05 05:07:44;;;;;;;45.40;20.30;;;;;;;1.40;78.84;98789.29;102911;1312;22630;-59
2021/12/05 05:10:16;;;;;;;44.80;21.80;;;;;;;1.42;78.99;98785.83;102923;1318;22811;-57
2021/12/05 05:12:44;;;;;;;41.50;20.10;;;;;;;1.46;79.01;98787.38;103000;1318;24476;-57
2021/12/05 05:15:18;;;;;;;40.00;19.70;;;;;;;1.46;79.03;98790.78;102884;1312;24422;-57
2021/12/05 05:17:50;;;;;;;39.20;19.70;;;;;;;1.44;78.90;98796.98;102987;1318;22938;-60
2021/12/05 05:20:24;;;;;;;36.90;18.10;;;;;;;1.44;78.98;98801.70;102931;1312;22585;-57
2021/12/05 05:23:14;;;;;;;33.40;15.60;;;;;;;1.42;79.09;98802.19;102876;1312;25336;-59
2021/12/05 05:40:04;;;;;;;309.40;107.90;;;;;;;1.39;79.36;98819.16;102568;1323;24324;-60
2021/12/05 05:46:03;;;;;;;129.60;49.00;;;;;;;1.37;79.49;98822.02;102020;1321;25458;-58
2021/12/05 05:48:39;;;;;;;76.60;29.80;;;;;;;1.38;79.51;98820.77;102070;1331;25540;-57
2021/12/05 05:51:11;;;;;;;165.90;61.90;;;;;;;1.38;79.44;98820.71;102017;1321;22620;-59
2021/12/05 05:53:39;;;;;;;251.80;86.60;;;;;;;1.38;79.56;98824.55;102100;1321;24453;-58
2021/12/05 05:56:12;;;;;;;317.10;105.20;;;;;;;1.42;79.63;98825.98;102047;1327;22614;-56
2021/12/05 05:58:45;;;;;;;233.90;83.00;;;;;;;1.44;79.60;98828.30;102041;1324;22619;-56
2021/12/05 06:01:21;;;;;;;193.50;66.50;;;;;;;1.44;79.57;98834.38;102051;1327;24236;-58
2021/12/05 06:03:50;;;;;;;165.90;53.70;;;;;;;1.45;79.60;98839.68;102148;1329;24332;-57
2021/12/05 06:06:21;;;;;;;116.10;39.70;;;;;;;1.43;79.57;98845.11;102210;1321;23199;-59
2021/12/05 06:08:49;;;;;;;62.60;25.10;;;;;;;1.42;79.80;98844.27;102432;1318;22733;-58
2021/12/05 06:11:18;;;;;;;56.70;21.00;;;;;;;1.42;79.81;98846.79;102469;1322;22580;-56
2021/12/05 06:13:47;;;;;;;;;;;;;;;1.46;79.81;98852.47;102533;1318;24087;-57
2021/12/05 06:16:17;;;;;;;40.50;18.50;;;;;;;1.45;79.79;98853.53;102545;1312;22619;-59
2021/12/05 06:18:46;;;;;;;44.80;19.80;;;;;;;1.44;79.88;98856.61;103090;1316;23363;-57
2021/12/05 06:21:16;;;;;;;76.60;27.00;;;;;;;1.45;79.89;98854.84;102980;1318;22559;-54
2021/12/05 06:23:45;;;;;;;122.30;39.70;;;;;;;1.46;79.84;98858.60;103033;1315;25660;-56
2021/12/05 06:26:21;;;;;;;154.70;54.50;;;;;;;1.45;79.94;98855.64;102889;1312;25383;-60
2021/12/05 06:29:02;;;;;;;134.10;45.30;;;;;;;1.43;79.92;98859.63;102974;1312;22779;-58
2021/12/05 06:31:46;;;;;;;85.50;32.10;;;;;;;1.41;80.09;98861.99;103024;1318;24218;-59
2021/12/05 06:37:25;;;;;;;55.60;22.90;;;;;;;1.40;80.15;98874.22;102881;1319;22571;-59
2021/12/05 06:40:16;;;;;;;46.90;19.60;;;;;;;1.37;80.19;98875.27;102851;1317;25634;-60
2021/12/05 06:42:57;;;;;;;46.10;19.20;;;;;;;1.36;80.27;98875.09;102856;1317;22567;-57
2021/12/05 06:48:12;;;;;;;46.40;19.70;;;;;;;1.34;80.47;98876.33;102928;1318;27058;-60
2021/12/05 06:50:41;;;;;;;44.00;19.10;;;;;;;1.35;80.35;98876.85;102977;1312;22740;-57
2021/12/05 06:53:09;;;;;;;45.40;21.80;;;;;;;1.34;80.46;98878.04;102893;1313;22748;-58
2021/12/05 06:55:37;;;;;;;46.00;21.40;;;;;;;1.34;80.53;98881.03;102868;1312;24228;-58
2021/12/05 06:58:05;;;;;;;44.90;21.20;;;;;;;1.35;80.43;98885.95;102917;1318;22598;-59
2021/12/05 07:00:34;;;;;;;43.90;19.60;;;;;;;1.35;80.61;98880.70;102961;1317;22597;-59
2021/12/05 07:03:03;;;;;;;42.60;18.20;;;;;;;1.37;80.61;98889.81;103035;1317;22662;-59
2021/12/05 07:05:46;;;;;;;38.70;17.50;;;;;;;1.40;80.67;98887.91;102943;1313;22635;-58
2021/12/05 07:08:16;;;;;;;42.90;18.40;;;;;;;1.38;80.72;98889.27;102913;1315;26333;-59
2021/12/05 07:10:53;;;;;;;42.00;18.50;;;;;;;1.37;80.60;98891.45;102948;1318;22756;-57
2021/12/05 07:16:16;;;;;;;38.30;16.30;;;;;;;1.40;80.77;98898.51;102791;1319;22588;-60
2021/12/05 07:18:59;;;;;;;39.10;16.80;;;;;;;1.39;80.80;98901.98;103013;1318;22643;-55
2021/12/05 07:21:38;;;;;;;41.40;16.90;;;;;;;1.38;80.86;98905.40;103152;1312;22582;-59
2021/12/05 07:24:15;;;;;;;42.90;19.10;;;;;;;1.37;80.90;98910.07;102916;1319;22568;-58
2021/12/05 07:27:02;;;;;;;47.60;18.80;;;;;;;1.38;80.89;98913.86;102923;1312;24039;-60
2021/12/05 07:40:42;;;;;;;39.20;19.00;;;;;;;1.48;80.98;98914.61;102938;1316;22639;-60
2021/12/05 07:43:14;;;;;;;37.70;17.50;;;;;;;1.48;81.09;98916.89;103129;1319;22594;-59
2021/12/05 07:45:50;;;;;;;37.60;18.20;;;;;;;1.51;81.12;98921.65;102978;1318;22559;-60
2021/12/05 07:48:21;;;;;;;48.70;20.80;;;;;;;1.54;81.14;98922.55;102907;1317;24319;-57
2021/12/05 07:50:57;;;;;;;50.80;21.90;;;;;;;1.56;81.03;98922.86;102895;1316;22576;-59
2021/12/05 07:53:31;;;;;;;47.70;20.00;;;;;;;1.56;81.12;98928.54;102923;1317;23405;-60
2021/12/05 07:56:08;;;;;;;44.20;19.10;;;;;;;1.58;81.16;98932.16;103236;1317;22627;-59
2021/12/05 08:15:24;;;;;;;42.70;20.70;;;;;;;1.60;81.40;98939.08;101998;1327;22656;-59
2021/12/05 08:17:57;;;;;;;38.80;19.00;;;;;;;1.59;81.36;98938.10;102256;1321;26104;-58
2021/12/05 08:20:29;;;;;;;47.20;20.70;;;;;;;1.57;81.46;98938.95;102149;1321;25687;-59
2021/12/05 08:23:00;;;;;;;49.40;23.60;;;;;;;1.57;81.45;98941.94;102095;1321;22655;-56
2021/12/05 08:25:30;;;;;;;49.80;24.00;;;;;;;1.59;81.55;98943.11;102126;1321;25462;-57
2021/12/05 08:28:13;;;;;;;46.80;21.50;;;;;;;1.61;81.65;98947.73;102231;1323;22785;-57
2021/12/05 08:30:45;;;;;;;47.60;22.70;;;;;;;1.64;81.74;98947.79;102171;1321;22623;-58
2021/12/05 08:33:31;;;;;;;54.50;25.80;;;;;;;1.65;81.69;98950.90;102169;1326;22749;-58
2021/12/05 08:42:17;;;;;;;53.50;24.20;;;;;;;1.65;81.67;98958.06;102232;1321;22582;-57
2021/12/05 09:24:04;;;;;;;39.90;18.10;;;;;;;1.93;82.17;98976.80;102343;1318;24025;-59
2021/12/05 09:26:57;;;;;;;38.50;17.60;;;;;;;1.96;82.23;98979.66;102390;1318;25263;-59
2021/12/05 10:06:41;;;;;;;44.60;21.90;;;;;;;2.44;82.36;98968.33;102318;1322;25264;-59
2021/12/05 10:06:53;;;;;;;45.60;22.30;;;;;;;2.49;82.47;98967.35;102204;1321;22659;-59
2021/12/05 10:09:39;;;;;;;48.50;23.00;;;;;;;2.54;82.56;98972.34;102275;1318;22650;-59
2021/12/05 10:12:45;;;;;;;45.50;21.40;;;;;;;2.58;82.49;98977.08;102370;1324;22745;-59
2021/12/05 10:15:34;;;;;;;51.70;22.50;;;;;;;2.59;82.48;98982.73;102464;1318;22573;-59
2021/12/05 10:18:48;;;;;;;53.70;24.40;;;;;;;2.60;82.45;98989.36;102375;1318;24249;-59
2021/12/05 10:38:21;;;;;;;47.40;24.40;;;;;;;2.49;82.72;99008.21;102536;1319;22886;-59
2021/12/05 10:40:59;;;;;;;52.70;25.50;;;;;;;2.48;82.76;99012.48;106065;1312;30634;-60
2021/12/05 10:43:30;;;;;;;48.40;26.70;;;;;;;2.47;82.70;99011.73;102780;1313;25362;-60
2021/12/05 10:46:07;;;;;;;58.10;28.90;;;;;;;2.47;82.80;99013.48;102792;1313;25377;-60
2021/12/05 10:48:39;;;;;;;67.10;35.10;;;;;;;2.49;82.76;99010.02;102802;1312;25308;-58
2021/12/05 10:51:11;;;;;;;77.50;39.90;;;;;;;2.51;82.76;99010.66;103053;1317;22591;-58
2021/12/05 10:53:43;;;;;;;89.90;47.80;;;;;;;2.50;82.78;99012.56;102872;1312;22770;-58
2021/12/05 10:56:15;;;;;;;90.30;49.70;;;;;;;2.51;82.83;99013.09;103094;1317;22572;-58
2021/12/05 10:58:47;;;;;;;93.90;49.20;;;;;;;2.54;82.93;99013.61;103038;1317;23128;-58
2021/12/05 11:01:29;;;;;;;79.30;42.50;;;;;;;2.56;82.96;99015.42;103099;1312;22588;-60
2021/12/05 11:04:01;;;;;;;66.80;36.80;;;;;;;2.56;82.96;99015.00;102935;1317;22597;-58
2021/12/05 11:06:36;;;;;;;67.60;36.80;;;;;;;2.58;82.99;99014.92;102938;1312;22658;-54
2021/12/05 11:09:08;;;;;;;59.40;31.90;;;;;;;2.60;82.98;99013.70;102777;1312;22588;-62
2021/12/05 11:11:37;;;;;;;70.10;35.10;;;;;;;2.60;83.06;99011.36;102764;1313;24441;-59
2021/12/05 11:14:27;;;;;;;74.80;36.30;;;;;;;2.62;83.10;99012.63;103018;1312;22645;-60
2021/12/05 11:17:17;;;;;;;65.10;34.60;;;;;;;2.65;83.01;99015.52;103043;1316;25241;-60
2021/12/05 11:19:47;;;;;;;63.10;31.10;;;;;;;2.65;83.11;99020.55;103684;1312;22590;-61
2021/12/05 11:22:18;;;;;;;61.10;31.20;;;;;;;2.66;83.11;99026.51;104031;1318;22533;-60
2021/12/05 11:24:50;;;;;;;64.10;30.70;;;;;;;2.65;83.07;99030.05;105021;1318;22558;-60
2021/12/05 11:27:25;;;;;;;58.30;30.60;;;;;;;2.65;83.23;99032.75;103619;1318;22774;-59
2021/12/05 11:30:17;;;;;;;61.90;29.40;;;;;;;2.67;83.29;99032.76;103406;1312;22594;-59
2021/12/05 11:32:51;;;;;;;59.50;30.40;;;;;;;2.67;83.25;99030.71;102961;1312;25258;-60
2021/12/05 11:35:29;;;;;;;65.60;32.50;;;;;;;2.68;83.30;99034.91;106690;1319;22415;-61
2021/12/05 11:38:16;;;;;;;70.40;36.10;;;;;;;2.69;83.31;99034.94;103482;1312;22593;-61
2021/12/05 11:40:54;;;;;;;78.40;43.70;;;;;;;2.69;83.29;99045.90;103097;1317;24336;-67
2021/12/05 11:43:26;;;;;;;82.50;43.00;;;;;;;2.70;83.26;99045.16;103082;1317;22577;-61
2021/12/05 11:45:58;;;;;;;85.00;45.10;;;;;;;2.66;83.17;99047.35;104647;1318;24245;-62
2021/12/05 11:48:30;;;;;;;77.00;41.30;;;;;;;2.65;83.18;99047.94;103266;1316;22742;-61
2021/12/05 11:51:02;;;;;;;82.30;45.30;;;;;;;2.63;83.23;99049.67;103013;1312;24361;-61
2021/12/05 11:53:42;;;;;;;81.70;44.90;;;;;;;2.61;83.21;99053.32;103146;1318;22685;-59
2021/12/05 11:56:17;;;;;;;88.20;45.10;;;;;;;2.60;83.28;99052.98;103085;1318;25254;-61
2021/12/05 11:58:45;;;;;;;83.90;43.70;;;;;;;2.58;83.30;99049.65;103305;1317;22580;-62
2021/12/05 12:01:15;;;;;;;79.80;39.90;;;;;;;2.56;83.24;99045.34;103190;1318;23950;-62
2021/12/05 12:03:43;;;;;;;80.90;41.00;;;;;;;2.56;83.32;99038.55;103129;1317;26151;-62
2021/12/05 12:06:19;;;;;;;95.80;47.60;;;;;;;2.56;83.35;99041.45;103184;1312;25389;-61
2021/12/05 12:08:50;;;;;;;103.40;52.20;;;;;;;2.56;83.42;99041.85;103013;1318;25347;-61
2021/12/05 12:11:18;;;;;;;93.70;46.70;;;;;;;2.56;83.39;99043.75;103481;1313;24244;-57
2021/12/05 12:13:49;;;;;;;86.10;44.40;;;;;;;2.55;83.33;99053.48;103359;1313;25279;-57
2021/12/05 12:16:18;;;;;;;84.30;44.50;;;;;;;2.53;83.37;99054.01;103289;1312;22648;-59
2021/12/05 12:18:50;;;;;;;84.70;44.30;;;;;;;2.51;83.39;99053.55;103160;1318;22554;-57
2021/12/05 12:21:22;;;;;;;79.60;41.00;;;;;;;2.53;83.46;99050.46;103550;1312;22551;-58
2021/12/05 12:23:55;;;;;;;74.60;40.00;;;;;;;2.58;83.52;99060.92;103250;1312;23992;-58
2021/12/05 12:26:25;;;;;;;77.90;40.10;;;;;;;2.62;83.43;99068.31;103064;1312;24605;-59
2021/12/05 12:28:58;;;;;;;78.80;42.60;;;;;;;2.63;83.46;99071.86;102901;1317;22601;-59
2021/12/05 12:31:33;;;;;;;71.80;39.30;;;;;;;2.65;83.46;99075.58;103115;1318;25252;-63
2021/12/05 12:34:05;;;;;;;79.80;42.00;;;;;;;2.68;83.44;99074.93;103023;1319;23011;-59
2021/12/05 12:36:37;;;;;;;75.30;39.60;;;;;;;2.67;83.44;99076.24;102902;1317;481871;-61
2021/12/05 12:39:27;;;;;;;75.00;38.60;;;;;;;2.65;83.41;99075.99;102932;1318;22922;-61
2021/12/05 12:42:15;;;;;;;78.10;41.10;;;;;;;2.64;83.49;99071.75;103180;1316;24570;-62
2021/12/05 12:45:16;;;;;;;74.00;39.40;;;;;;;2.62;83.42;99077.11;103214;1316;22683;-63
2021/12/05 12:47:51;;;;;;;67.30;35.10;;;;;;;2.57;83.56;99077.85;102505;1321;22709;-66
2021/12/05 12:50:50;;;;;;;72.20;38.20;;;;;;;2.55;83.71;99076.70;102901;1326;22729;-61
2021/12/05 12:53:30;;;;;;;77.30;36.90;;;;;;;2.59;83.91;99074.23;102510;1321;26247;-63
2021/12/05 12:56:05;;;;;;;74.20;36.90;;;;;;;2.62;83.93;99075.86;102693;1321;22616;-62
2021/12/05 12:58:54;;;;;;;61.70;32.90;;;;;;;2.64;83.84;99078.13;102785;1320;24376;-66
2021/12/05 13:01:49;;;;;;;70.90;34.00;;;;;;;2.67;83.90;99075.59;102783;1321;24258;-67
2021/12/05 13:04:49;;;;;;;64.70;32.40;;;;;;;2.72;83.86;99075.54;102727;1318;25287;-62
2021/12/05 13:10:24;;;;;;;64.60;34.30;;;;;;;2.77;83.77;99079.59;102592;1326;22667;-60
2021/12/05 13:13:02;;;;;;;64.90;33.90;;;;;;;2.81;83.86;99081.48;104977;1326;23523;-60
2021/12/05 13:15:41;;;;;;;62.90;32.00;;;;;;;2.82;83.77;99075.92;102649;1320;22594;-66
2021/12/05 13:18:26;;;;;;;62.70;33.00;;;;;;;2.86;83.93;99074.27;102551;1320;24249;-58
2021/12/05 13:20:58;;;;;;;65.20;34.10;;;;;;;2.87;83.82;99074.92;102629;1321;22599;-62
2021/12/05 13:23:38;;;;;;;74.60;37.00;;;;;;;2.88;83.95;99076.55;103047;1315;22578;-65
2021/12/05 13:26:33;;;;;;;68.50;33.60;;;;;;;2.88;83.80;99079.70;103284;1318;26745;-58
2021/12/05 13:29:15;;;;;;;72.20;39.00;;;;;;;2.86;83.77;99085.63;103153;1318;25225;-61
2021/12/05 13:31:48;;;;;;;70.80;36.70;;;;;;;2.82;83.86;99090.65;103343;1318;22576;-64
2021/12/05 13:34:24;;;;;;;66.90;35.20;;;;;;;2.80;83.76;99096.09;103243;1317;22591;-65
2021/12/05 13:36:58;;;;;;;77.30;37.50;;;;;;;2.79;83.93;99096.61;103350;1318;25931;-63
2021/12/05 13:39:38;;;;;;;73.50;39.20;;;;;;;2.77;84.02;99093.45;103389;1318;25384;-59
2021/12/05 13:42:10;;;;;;;77.20;39.90;;;;;;;2.77;84.09;99096.14;103264;1317;22577;-59
2021/12/05 13:45:11;;;;;;;78.40;40.30;;;;;;;2.77;84.15;99094.40;103174;1318;22573;-61
2021/12/05 13:48:07;;;;;;;75.70;39.70;;;;;;;2.74;84.07;99093.09;103440;1315;25499;-60
2021/12/05 13:50:43;;;;;;;72.10;39.10;;;;;;;2.71;84.08;99092.16;103296;1313;25399;-59
2021/12/05 13:53:30;;;;;;;82.70;40.30;;;;;;;2.71;84.01;99090.52;103214;1318;22691;-59
2021/12/05 13:56:09;;;;;;;75.40;39.40;;;;;;;2.69;84.11;99083.46;103311;1317;22617;-59
2021/12/05 13:58:42;;;;;;;76.20;39.30;;;;;;;2.63;84.04;99079.89;103268;1317;26529;-59
2021/12/05 14:01:15;;;;;;;74.40;36.70;;;;;;;2.60;84.09;99076.82;103191;1319;23593;-60
2021/12/05 14:03:54;;;;;;;70.00;37.30;;;;;;;2.60;84.17;99083.67;103635;1315;22970;-58
2021/12/05 14:06:52;;;;;;;76.50;37.10;;;;;;;2.60;84.09;99092.65;103074;1319;24246;-66
2021/12/05 14:09:25;;;;;;;69.30;36.00;;;;;;;2.59;84.14;99092.69;102793;1318;22584;-65
2021/12/05 14:11:59;;;;;;;99.80;53.30;;;;;;;2.59;84.21;99094.14;103291;1324;22764;-62
2021/12/05 14:14:35;;;;;;;131.80;69.70;;;;;;;2.60;84.19;99099.33;103626;1321;22586;-62
2021/12/05 14:17:06;;;;;;;153.40;81.90;;;;;;;2.60;84.22;99104.69;102872;1321;23750;-60
2021/12/05 14:19:38;;;;;;;183.40;90.60;;;;;;;2.59;84.16;99108.82;104944;1324;22778;-62
2021/12/05 14:22:09;;;;;;;196.10;97.20;;;;;;;2.59;84.23;99107.26;102716;1324;22564;-61
2021/12/05 14:24:43;;;;;;;169.40;84.80;;;;;;;2.59;84.10;99116.83;102986;1322;22627;-61
2021/12/05 14:27:24;;;;;;;155.40;77.00;;;;;;;2.58;84.21;99118.30;102604;1324;23944;-62
2021/12/05 14:29:53;;;;;;;150.70;78.90;;;;;;;2.55;84.38;99121.61;102457;1318;24247;-62
2021/12/05 14:32:24;;;;;;;147.50;81.00;;;;;;;2.54;84.36;99124.17;102646;1325;22719;-62
2021/12/05 14:34:56;;;;;;;156.60;83.10;;;;;;;2.52;84.41;99128.02;102674;1324;22539;-62
2021/12/05 14:37:28;;;;;;;148.70;80.10;;;;;;;2.53;84.46;99127.23;103995;1321;22631;-61
2021/12/05 14:39:59;;;;;;;146.90;80.30;;;;;;;2.53;84.51;99129.19;102734;1323;23980;-62
2021/12/05 14:42:32;;;;;;;144.80;80.70;;;;;;;2.53;84.49;99134.22;102117;1322;24253;-62
2021/12/05 14:45:07;;;;;;;150.80;80.00;;;;;;;2.56;84.50;99137.56;102472;1318;24252;-62
2021/12/05 14:47:37;;;;;;;142.10;75.80;;;;;;;2.57;84.51;99140.04;103129;1318;25901;-62
2021/12/05 14:50:14;;;;;;;163.20;89.10;;;;;;;2.58;84.48;99142.07;103106;1318;24263;-60
2021/12/05 14:52:47;;;;;;;191.80;97.70;;;;;;;2.58;84.56;99148.76;102849;1312;22673;-60
2021/12/05 14:55:20;;;;;;;203.90;102.20;;;;;;;2.57;84.59;99152.08;102776;1318;22623;-61
2021/12/05 14:57:51;;;;;;;200.20;98.10;;;;;;;2.56;84.62;99158.66;104503;1319;22567;-61
2021/12/05 15:00:34;;;;;;;194.90;97.80;;;;;;;2.56;84.47;99160.70;103765;1316;22600;-63
2021/12/05 15:03:07;;;;;;;210.70;102.20;;;;;;;2.55;84.45;99163.02;104186;1319;22661;-62
2021/12/05 15:06:07;;;;;;;196.70;95.40;;;;;;;2.55;84.55;99160.85;103287;1312;25252;-59
2021/12/05 15:08:41;;;;;;;176.60;89.20;;;;;;;2.52;84.71;99164.63;104431;1318;22765;-63
2021/12/05 15:11:14;;;;;;;173.30;85.80;;;;;;;2.52;84.79;99165.90;103629;1318;22634;-62
2021/12/05 15:13:51;;;;;;;142.90;72.90;;;;;;;2.53;84.88;99170.52;103497;1318;22597;-63
2021/12/05 15:16:20;;;;;;;142.80;68.90;;;;;;;2.50;84.99;99166.31;103159;1319;22720;-62
2021/12/05 15:18:50;;;;;;;132.20;67.30;;;;;;;2.45;84.93;99166.55;103151;1319;24347;-60
2021/12/05 15:21:22;;;;;;;123.00;65.10;;;;;;;2.39;84.95;99171.81;103455;1317;25390;-61
2021/12/05 15:23:51;;;;;;;159.90;71.10;;;;;;;2.35;84.98;99172.80;103160;1317;26550;-59
2021/12/05 15:26:20;;;;;;;146.70;70.60;;;;;;;2.33;85.11;99172.27;102999;1318;24121;-59
2021/12/05 15:28:59;;;;;;;161.40;74.90;;;;;;;2.32;85.28;99174.67;102883;1319;25953;-59
2021/12/05 15:31:36;;;;;;;120.50;60.50;;;;;;;2.30;85.43;99172.20;102943;1316;22810;-60
2021/12/05 15:34:24;;;;;;;80.50;39.10;;;;;;;2.29;85.47;99173.64;103104;1317;24189;-62
2021/12/05 15:36:54;;;;;;;74.70;36.70;;;;;;;2.26;85.66;99172.98;103067;1319;24386;-59
2021/12/05 15:39:27;;;;;;;75.90;36.30;;;;;;;2.24;85.62;99178.60;103231;1317;22585;-66
2021/12/05 15:42:00;;;;;;;70.00;32.60;;;;;;;2.18;85.64;99179.02;103408;1311;24209;-64
2021/12/05 15:44:37;;;;;;;66.80;31.00;;;;;;;2.14;85.75;99178.00;103199;1319;22610;-62
2021/12/05 15:47:13;;;;;;;66.10;30.70;;;;;;;2.10;85.75;99177.67;103157;1317;22616;-61
2021/12/05 15:49:47;;;;;;;67.30;30.90;;;;;;;2.08;85.81;99181.27;103147;1313;22719;-60
2021/12/05 15:52:17;;;;;;;65.30;29.80;;;;;;;2.07;85.83;99184.55;103108;1319;22589;-60
2021/12/05 15:54:47;;;;;;;64.00;29.40;;;;;;;2.05;85.84;99189.80;103331;1317;22660;-59